Terminal Aerodrome Forecast
Issued by NWS

Home | Current Version | Previous Version | Text Only | Print | Product List | Glossary On
Versions: 1 2 3 4 5 6 7 8 9 10 11 12 13 14 15 16 17 18 19 20 21 22 23 24
366
FTUS44 KOUN 220532
TAFPNC
TAF
KPNC 220532Z 2206/2306 16012G19KT 6SM SHRA BR SCT020 BKN040
      TEMPO 2206/2209 3SM TSRA OVC020CB
     FM221200 18010KT 3SM RA OVC015
      TEMPO 2212/2216 2SM -TSRA OVC015CB
     FM221800 22011KT P6SM OVC025 PROB30 2218/2221 4SM RA
     FM222200 26010KT P6SM BKN060
     FM230000 36005KT P6SM FEW250=

USA.gov is the U.S. government's official web portal to all federal, state and local government web resources and services.